Time;durP1;ratioP1;P1;durP2;ratioP2;P2;SDS_P1;SDS_P2;PMS_P1;PMS_P2;Temp;Humidity;BMP_temperature;BMP_pressure;BME280_temperature;BME280_humidity;BME280_pressure;Samples;Min_cycle;Max_cycle;Signal;HPM_P1;HPM_P2
2021/12/06 00:00:37;;;;;;;23.90;17.98;;;;;;;3.31;87.85;100976.84;5032903;28;20040;-69
2021/12/06 00:03:07;;;;;;;21.40;17.20;;;;;;;3.31;87.55;100982.19;5034012;28;20650;-69
2021/12/06 00:05:33;;;;;;;23.23;17.90;;;;;;;3.28;87.80;100981.72;5026504;28;20038;-69
2021/12/06 00:07:58;;;;;;;20.60;16.73;;;;;;;3.34;87.87;100984.53;5032724;28;20048;-69
2021/12/06 00:10:23;;;;;;;22.88;17.85;;;;;;;3.41;88.26;100979.31;5033271;28;20048;-69
2021/12/06 00:12:49;;;;;;;23.60;17.75;;;;;;;3.43;87.82;100984.47;5033628;28;20029;-69
2021/12/06 00:15:15;;;;;;;23.45;18.35;;;;;;;3.47;87.83;100989.34;5033673;28;20033;-69
2021/12/06 00:17:41;;;;;;;21.17;17.15;;;;;;;3.46;87.77;100989.50;5033152;28;20404;-69
2021/12/06 00:20:09;;;;;;;22.05;17.35;;;;;;;3.43;87.19;100996.03;5032334;28;20056;-69
2021/12/06 00:22:34;;;;;;;23.27;17.30;;;;;;;3.42;87.74;100999.69;5033609;28;20045;-69
2021/12/06 00:25:00;;;;;;;21.30;17.05;;;;;;;3.44;87.59;101000.38;5033422;28;20033;-69
2021/12/06 00:27:26;;;;;;;22.50;17.10;;;;;;;3.44;87.37;100996.84;5033355;28;20033;-69
2021/12/06 00:29:51;;;;;;;23.40;17.10;;;;;;;3.43;87.42;101000.53;5033511;28;20038;-69
2021/12/06 00:32:17;;;;;;;20.92;17.48;;;;;;;3.50;88.03;101006.84;5033214;28;20036;-69
2021/12/06 00:34:42;;;;;;;23.67;17.80;;;;;;;3.51;87.84;101000.50;5015784;28;20464;-69
2021/12/06 00:40:06;;;;;;;25.00;18.23;;;;;;;3.59;87.74;101013.00;5026534;28;20037;-69
2021/12/06 00:42:33;;;;;;;21.02;16.52;;;;;;;3.51;87.26;101019.25;5033211;28;20037;-69
2021/12/06 00:44:59;;;;;;;21.58;16.95;;;;;;;3.54;87.81;101024.25;5032027;28;20052;-69
2021/12/06 00:47:25;;;;;;;23.15;16.92;;;;;;;3.54;87.44;101021.56;5033019;28;20583;-69
2021/12/06 00:49:50;;;;;;;23.33;18.30;;;;;;;3.58;87.65;101027.38;5032663;28;20083;-69
2021/12/06 00:52:17;;;;;;;22.13;17.88;;;;;;;3.56;87.66;101032.91;5033291;28;20033;-69
2021/12/06 00:54:43;;;;;;;21.92;16.90;;;;;;;3.57;87.59;101031.09;5025104;28;20029;-69
2021/12/06 00:57:12;;;;;;;21.10;17.00;;;;;;;3.52;87.81;101039.66;5032856;28;20053;-69
2021/12/06 00:59:38;;;;;;;24.08;18.55;;;;;;;3.52;87.67;101047.66;5038219;28;20451;-69
2021/12/06 01:02:07;;;;;;;24.65;18.85;;;;;;;3.53;88.74;101052.84;5030548;28;20087;-69
2021/12/06 01:04:36;;;;;;;24.23;18.63;;;;;;;3.51;88.01;101057.53;5032485;28;20035;-69
2021/12/06 01:07:02;;;;;;;25.77;19.17;;;;;;;3.51;88.26;101068.22;5032620;28;20033;-69
2021/12/06 01:09:28;;;;;;;25.35;19.30;;;;;;;3.52;88.65;101069.06;5032576;28;20061;-69
2021/12/06 01:11:53;;;;;;;24.40;18.70;;;;;;;3.53;88.76;101060.88;5037380;28;20061;-69
2021/12/06 01:14:19;;;;;;;25.23;19.25;;;;;;;3.57;88.60;101065.88;5036839;28;20064;-69
2021/12/06 01:16:45;;;;;;;25.77;19.80;;;;;;;3.57;88.61;101061.34;5032249;28;20044;-69
2021/12/06 01:19:10;;;;;;;27.65;20.02;;;;;;;3.61;88.66;101056.47;5032817;28;20037;-69
2021/12/06 01:21:47;;;;;;;24.00;19.75;;;;;;;3.65;88.52;101069.31;5032728;28;20048;-69
2021/12/06 01:24:13;;;;;;;28.40;21.20;;;;;;;3.64;88.45;101073.03;5032563;28;20541;-69
2021/12/06 01:39:20;;;;;;;24.65;19.85;;;;;;;3.77;88.60;101075.13;5032135;28;20061;-69
2021/12/06 01:41:50;;;;;;;26.08;20.50;;;;;;;3.78;88.60;101084.03;5031755;28;20479;-69
2021/12/06 01:44:20;;;;;;;28.52;20.65;;;;;;;3.78;87.97;101081.34;5028358;28;20460;-69
2021/12/06 01:46:52;;;;;;;28.15;19.90;;;;;;;3.75;88.55;101089.72;5032375;28;20029;-69
2021/12/06 01:49:24;;;;;;;25.48;19.65;;;;;;;3.73;89.13;101092.56;5024368;28;20025;-69
2021/12/06 01:51:53;;;;;;;25.33;19.63;;;;;;;3.76;88.80;101102.94;5032139;28;20061;-69
2021/12/06 01:54:19;;;;;;;24.20;19.70;;;;;;;3.78;88.55;101100.09;5031884;28;20112;-69
2021/12/06 01:56:47;;;;;;;26.75;20.73;;;;;;;3.77;88.98;101101.09;5014542;28;20120;-69
2021/12/06 01:59:13;;;;;;;25.50;20.13;;;;;;;3.78;89.03;101100.09;5032014;28;20030;-69
2021/12/06 02:01:39;;;;;;;28.67;20.65;;;;;;;3.76;89.06;101107.44;5029824;28;20029;-69
2021/12/06 02:04:05;;;;;;;27.90;20.85;;;;;;;3.75;88.57;101095.06;5031695;28;20037;-69
2021/12/06 02:06:30;;;;;;;28.55;20.65;;;;;;;3.75;89.00;101100.44;5031801;28;20037;-69
2021/12/06 02:08:57;;;;;;;26.90;21.10;;;;;;;3.79;88.83;101099.06;5032189;28;20037;-69
2021/12/06 02:11:25;;;;;;;27.05;21.17;;;;;;;3.80;89.06;101104.22;5031854;28;20036;-69
2021/12/06 02:14:01;;;;;;;31.27;21.52;;;;;;;3.80;88.82;101103.41;5032011;28;20035;-69
2021/12/06 02:16:36;;;;;;;26.73;21.27;;;;;;;3.82;88.63;101106.72;5033866;28;20030;-69
2021/12/06 02:19:05;;;;;;;26.85;20.48;;;;;;;3.81;89.13;101107.75;5031764;28;20029;-69
2021/12/06 02:21:33;;;;;;;27.35;20.77;;;;;;;3.82;89.07;101109.41;5031523;28;20095;-69
2021/12/06 02:24:03;;;;;;;25.42;20.15;;;;;;;3.82;88.80;101104.06;5031610;28;20083;-69
2021/12/06 02:26:28;;;;;;;26.30;19.95;;;;;;;3.82;88.89;101115.63;5032081;28;20044;-69
2021/12/06 02:28:54;;;;;;;26.20;19.80;;;;;;;3.80;88.76;101124.81;5031528;28;20030;-69
2021/12/06 02:31:22;;;;;;;27.27;19.85;;;;;;;3.80;88.81;101125.66;5031329;28;20366;-69
2021/12/06 02:33:49;;;;;;;26.95;20.92;;;;;;;3.80;88.86;101132.84;5017953;28;20430;-69
2021/12/06 02:36:16;;;;;;;25.52;20.33;;;;;;;3.79;88.58;101123.16;5013965;28;20037;-69
2021/12/06 02:38:41;;;;;;;25.08;20.60;;;;;;;3.76;88.79;101126.16;5037595;28;20120;-69
2021/12/06 02:41:08;;;;;;;26.83;20.73;;;;;;;3.76;88.90;101131.53;5031396;28;20410;-69
2021/12/06 02:43:34;;;;;;;27.10;21.15;;;;;;;3.72;88.78;101131.03;5033841;28;20045;-69
2021/12/06 02:45:59;;;;;;;28.23;20.52;;;;;;;3.66;88.80;101140.59;5034832;28;20049;-69
2021/12/06 02:48:25;;;;;;;28.50;21.23;;;;;;;3.67;89.11;101142.28;5035390;28;20155;-69
2021/12/06 02:50:56;;;;;;;29.88;21.58;;;;;;;3.66;89.61;101151.28;5035517;28;20052;-69
2021/12/06 02:53:24;;;;;;;29.17;22.37;;;;;;;3.65;89.47;101144.25;5035297;28;20032;-69
2021/12/06 02:55:52;;;;;;;27.88;22.20;;;;;;;3.64;89.43;101145.28;5034695;28;20032;-69
2021/12/06 03:01:01;;;;;;;28.73;21.98;;;;;;;3.67;89.82;101157.50;5032192;28;20477;-69
2021/12/06 03:03:27;;;;;;;27.65;22.17;;;;;;;3.62;89.28;101155.31;5035007;28;20433;-69
2021/12/06 03:05:52;;;;;;;28.05;21.58;;;;;;;3.62;89.63;101152.63;5034537;28;20072;-69
2021/12/06 03:08:39;;;;;;;28.38;22.30;;;;;;;3.68;90.02;101151.13;5034616;28;20109;-69
2021/12/06 03:11:07;;;;;;;28.25;22.25;;;;;;;3.66;89.92;101156.66;5017087;28;20036;-69
2021/12/06 03:13:32;;;;;;;29.38;22.73;;;;;;;3.67;89.38;101158.34;5033442;28;20034;-69
2021/12/06 03:15:58;;;;;;;26.92;21.90;;;;;;;3.70;89.78;101152.63;5034266;28;20087;-71
2021/12/06 03:18:23;;;;;;;26.50;21.60;;;;;;;3.73;89.49;101157.63;5034202;28;20033;-69
2021/12/06 03:20:48;;;;;;;28.75;21.95;;;;;;;3.75;89.24;101159.31;5034906;28;20099;-70
2021/12/06 03:23:14;;;;;;;33.28;22.00;;;;;;;3.72;89.43;101155.97;5018611;28;20396;-71
2021/12/06 03:25:39;;;;;;;27.40;21.42;;;;;;;3.76;89.55;101158.28;5034596;28;20033;-70
2021/12/06 03:28:04;;;;;;;30.40;22.50;;;;;;;3.73;89.27;101152.28;5034470;28;20106;-69
2021/12/06 03:30:30;;;;;;;27.75;21.52;;;;;;;3.76;89.56;101156.47;5034554;28;20036;-70
2021/12/06 03:32:55;;;;;;;29.85;22.05;;;;;;;3.73;89.33;101149.59;5034198;28;20029;-69
2021/12/06 03:35:20;;;;;;;33.55;23.52;;;;;;;3.77;89.55;101154.63;5034356;28;20025;-68
2021/12/06 03:37:46;;;;;;;30.05;23.02;;;;;;;3.83;89.49;101156.59;5016866;28;20152;-68
2021/12/06 03:40:12;;;;;;;29.38;23.13;;;;;;;3.82;89.40;101163.81;5034257;28;20500;-68
2021/12/06 03:42:37;;;;;;;27.27;22.48;;;;;;;3.80;89.44;101157.78;5034676;28;20112;-68
2021/12/06 03:45:06;;;;;;;29.58;21.65;;;;;;;3.78;89.40;101161.66;5034220;28;20149;-69
2021/12/06 03:47:32;;;;;;;29.17;21.73;;;;;;;3.81;89.10;101166.66;5034894;28;20079;-68
2021/12/06 03:49:59;;;;;;;28.60;20.45;;;;;;;3.81;89.25;101161.31;5034367;28;20064;-68
2021/12/06 03:52:25;;;;;;;27.70;22.33;;;;;;;3.81;89.46;101170.16;5034591;28;20053;-68
2021/12/06 03:54:51;;;;;;;29.08;21.42;;;;;;;3.81;89.22;101159.44;5033195;28;20030;-68
2021/12/06 03:57:18;;;;;;;29.70;21.42;;;;;;;3.82;89.37;101160.28;5033878;28;20045;-68
2021/12/06 03:59:43;;;;;;;29.48;22.52;;;;;;;3.85;89.20;101162.59;5034398;28;20084;-68
2021/12/06 04:02:09;;;;;;;29.40;22.95;;;;;;;3.86;89.24;101166.97;5031570;28;20538;-68
2021/12/06 04:04:35;;;;;;;26.92;21.13;;;;;;;3.88;88.78;101165.78;5034265;28;20404;-68
2021/12/06 04:07:01;;;;;;;29.23;21.63;;;;;;;3.86;88.90;101166.97;5039923;28;20069;-68
2021/12/06 04:09:27;;;;;;;29.42;21.88;;;;;;;3.85;89.10;101170.63;5034006;28;20064;-68
2021/12/06 04:11:53;;;;;;;26.13;21.73;;;;;;;3.85;89.10;101178.66;5016486;28;20476;-68
2021/12/06 04:14:18;;;;;;;26.67;21.02;;;;;;;3.83;89.06;101178.84;5034553;28;20109;-69
2021/12/06 04:16:45;;;;;;;31.63;23.30;;;;;;;3.86;89.17;101183.03;5033704;28;20358;-68
2021/12/06 04:19:12;;;;;;;31.08;22.02;;;;;;;3.86;89.17;101180.34;5033758;28;20033;-68
2021/12/06 04:21:40;;;;;;;26.60;21.13;;;;;;;3.84;88.87;101177.03;5033891;28;20034;-68
2021/12/06 04:24:05;;;;;;;27.17;21.90;;;;;;;3.86;88.89;101183.84;5033831;28;20385;-68
2021/12/06 04:26:31;;;;;;;27.25;21.73;;;;;;;3.87;89.13;101174.00;5034776;28;20116;-68
2021/12/06 04:29:00;;;;;;;34.78;23.92;;;;;;;3.84;89.02;101171.66;5034488;28;20113;-68
2021/12/06 04:31:31;;;;;;;28.27;21.95;;;;;;;3.81;89.31;101175.50;5033518;28;20036;-68
2021/12/06 04:33:57;;;;;;;30.85;23.50;;;;;;;3.84;89.39;101179.69;5033534;28;20112;-68
2021/12/06 04:36:23;;;;;;;27.40;22.05;;;;;;;3.81;88.75;101174.69;5033381;28;20383;-68
2021/12/06 04:38:48;;;;;;;32.35;23.75;;;;;;;3.80;88.77;101173.00;5033469;28;20475;-68
2021/12/06 04:41:13;;;;;;;31.77;23.67;;;;;;;3.76;88.60;101172.53;5033654;28;20091;-68
2021/12/06 04:43:39;;;;;;;29.25;23.42;;;;;;;3.72;88.48;101180.06;5033864;28;20424;-69
2021/12/06 04:46:04;;;;;;;31.92;24.13;;;;;;;3.71;88.88;101193.59;5032650;28;20038;-68
2021/12/06 04:48:29;;;;;;;29.40;22.92;;;;;;;3.66;88.15;101191.44;5033162;28;20032;-68
2021/12/06 04:50:55;;;;;;;27.52;21.73;;;;;;;3.64;88.55;101193.47;5032918;28;20374;-68
2021/12/06 04:53:24;;;;;;;30.77;22.20;;;;;;;3.60;87.86;101194.81;5033145;28;20052;-68
2021/12/06 04:56:05;;;;;;;30.10;21.15;;;;;;;3.58;87.52;101204.84;5015117;28;20037;-67
2021/12/06 04:58:39;;;;;;;29.23;21.52;;;;;;;3.54;87.47;101198.16;5033686;28;20392;-68
2021/12/06 05:01:11;;;;;;;29.98;22.30;;;;;;;3.53;87.85;101207.19;5012742;28;20044;-68
2021/12/06 05:03:38;;;;;;;26.05;20.55;;;;;;;3.46;87.48;101200.88;5032930;28;20472;-68
2021/12/06 05:06:08;;;;;;;28.02;21.52;;;;;;;3.40;86.95;101194.34;5032836;28;20124;-68
2021/12/06 05:08:42;;;;;;;26.33;20.27;;;;;;;3.36;86.89;101193.81;5033029;28;20083;-68
2021/12/06 05:11:08;;;;;;;28.90;20.42;;;;;;;3.33;86.79;101204.03;5032946;28;20030;-67
2021/12/06 05:13:37;;;;;;;26.77;20.40;;;;;;;3.27;86.91;101202.03;5032499;28;20538;-68
2021/12/06 05:16:02;;;;;;;24.05;19.52;;;;;;;3.24;86.48;101208.56;5015559;28;20040;-68
2021/12/06 05:18:28;;;;;;;26.83;20.05;;;;;;;3.19;86.55;101208.25;5032832;28;20400;-68
2021/12/06 05:20:53;;;;;;;25.65;20.35;;;;;;;3.16;86.96;101211.25;5039852;28;20033;-68
2021/12/06 05:23:19;;;;;;;24.52;19.33;;;;;;;3.09;86.81;101216.41;5032345;28;20481;-68
2021/12/06 05:25:45;;;;;;;25.30;20.15;;;;;;;3.05;86.55;101219.59;5032540;28;20491;-68
2021/12/06 05:28:11;;;;;;;27.52;21.38;;;;;;;3.02;86.85;101223.44;5032439;28;20037;-68
2021/12/06 05:30:38;;;;;;;26.60;20.75;;;;;;;2.94;86.39;101216.22;5019409;28;20114;-68
2021/12/06 05:33:06;;;;;;;28.25;19.77;;;;;;;2.92;86.00;101223.59;5032653;28;20037;-68
2021/12/06 05:35:31;;;;;;;25.10;19.55;;;;;;;2.88;86.54;101216.91;5032626;28;20025;-68
2021/12/06 05:37:58;;;;;;;30.25;21.63;;;;;;;2.88;86.79;101206.19;5032392;28;20045;-68
2021/12/06 05:40:31;;;;;;;38.38;21.95;;;;;;;2.89;87.96;101221.25;5032590;28;20443;-68
2021/12/06 05:42:57;;;;;;;36.95;21.55;;;;;;;2.91;88.20;101213.88;5032663;28;20115;-69
2021/12/06 05:45:25;;;;;;;64.63;22.58;;;;;;;2.91;88.25;101216.56;5032200;28;20050;-68
2021/12/06 05:47:51;;;;;;;31.73;21.27;;;;;;;2.96;88.38;101218.72;5032261;28;20038;-68
2021/12/06 05:50:17;;;;;;;45.22;22.42;;;;;;;2.97;88.18;101223.91;5032087;28;20032;-68
2021/12/06 05:52:43;;;;;;;84.07;21.88;;;;;;;2.99;89.07;101213.09;5033307;28;20025;-68
2021/12/06 05:55:10;;;;;;;127.90;22.13;;;;;;;2.91;88.31;101219.22;5031963;28;20108;-67
2021/12/06 05:57:36;;;;;;;33.10;20.02;;;;;;;2.95;88.68;101217.09;5032215;28;20033;-68
2021/12/06 06:00:05;;;;;;;76.28;22.45;;;;;;;2.97;88.74;101215.06;5032509;28;20428;-68
2021/12/06 06:02:30;;;;;;;89.20;21.38;;;;;;;2.96;89.12;101219.59;5021943;28;20030;-68
2021/12/06 06:04:56;;;;;;;68.00;21.92;;;;;;;2.99;89.00;101235.31;5032146;28;20036;-68
2021/12/06 06:07:21;;;;;;;133.85;23.23;;;;;;;2.96;89.31;101232.97;5032306;28;20030;-68
2021/12/06 06:09:46;;;;;;;51.30;22.23;;;;;;;2.96;89.78;101240.13;5014541;28;20499;-68
2021/12/06 06:12:12;;;;;;;45.60;21.20;;;;;;;3.00;89.54;101245.00;5032000;28;20087;-68
2021/12/06 06:14:37;;;;;;;120.85;23.35;;;;;;;2.96;89.50;101245.47;5031676;28;20037;-68
2021/12/06 06:17:14;;;;;;;85.80;23.52;;;;;;;2.94;89.98;101250.97;5032028;28;20044;-68
2021/12/06 06:19:47;;;;;;;67.68;22.73;;;;;;;2.94;90.03;101247.47;5036080;28;20116;-68
2021/12/06 06:22:12;;;;;;;74.80;22.95;;;;;;;2.97;90.39;101252.50;5035787;28;20491;-68
2021/12/06 06:24:39;;;;;;;93.03;23.23;;;;;;;2.92;89.96;101258.34;5018168;28;20041;-68
2021/12/06 06:27:05;;;;;;;97.45;23.85;;;;;;;2.94;90.04;101264.34;5035849;28;20515;-68
2021/12/06 06:29:31;;;;;;;116.05;23.88;;;;;;;2.93;90.10;101262.69;5035791;28;20080;-68
2021/12/06 06:31:57;;;;;;;105.55;22.02;;;;;;;2.95;90.01;101257.19;5027846;28;20029;-68
2021/12/06 06:34:22;;;;;;;94.13;23.60;;;;;;;2.96;90.79;101262.38;5036094;28;20056;-67
2021/12/06 06:36:48;;;;;;;98.32;24.60;;;;;;;3.00;90.99;101253.03;5036760;28;20037;-68
2021/12/06 06:39:14;;;;;;;69.80;23.23;;;;;;;3.00;90.56;101253.03;5035649;28;20472;-68
2021/12/06 06:41:39;;;;;;;83.65;24.02;;;;;;;3.03;90.88;101259.03;5035859;28;20060;-68
2021/12/06 06:44:06;;;;;;;69.78;24.00;;;;;;;3.06;91.05;101262.19;5035033;28;20428;-68
2021/12/06 06:46:32;;;;;;;46.15;24.00;;;;;;;3.10;90.71;101262.72;5035549;28;20100;-68
2021/12/06 06:48:57;;;;;;;103.85;24.25;;;;;;;3.07;90.97;101257.72;5035532;28;20042;-68
2021/12/06 06:51:24;;;;;;;69.97;24.83;;;;;;;3.11;90.80;101267.06;5035599;28;20056;-68
2021/12/06 06:53:50;;;;;;;49.53;24.45;;;;;;;3.13;90.48;101262.41;5035586;28;20037;-69
2021/12/06 06:56:15;;;;;;;77.30;24.77;;;;;;;3.12;90.62;101255.38;5035083;28;20101;-68
2021/12/06 06:58:40;;;;;;;59.70;23.80;;;;;;;3.10;90.65;101257.38;5037386;28;20057;-68
2021/12/06 07:01:06;;;;;;;77.88;24.58;;;;;;;3.06;91.17;101261.38;5035460;28;20029;-68
2021/12/06 07:03:32;;;;;;;119.82;26.13;;;;;;;3.05;91.04;101262.38;5035024;28;20105;-68
2021/12/06 07:06:02;;;;;;;59.00;24.13;;;;;;;3.08;91.53;101264.72;5035437;28;20064;-69
2021/12/06 07:08:28;;;;;;;55.97;23.65;;;;;;;3.12;90.69;101255.38;5035067;28;20055;-68
2021/12/06 07:10:54;;;;;;;76.05;25.05;;;;;;;3.11;91.18;101264.38;5035252;28;20095;-68
2021/12/06 07:13:21;;;;;;;47.67;24.33;;;;;;;3.14;90.76;101261.38;5034998;28;20116;-68
2021/12/06 07:15:47;;;;;;;74.80;24.05;;;;;;;3.14;91.08;101270.25;5035165;28;20033;-68
2021/12/06 07:18:12;;;;;;;47.72;24.88;;;;;;;3.22;90.93;101271.25;5034724;28;20275;-68
2021/12/06 07:20:37;;;;;;;62.95;24.65;;;;;;;3.19;90.76;101277.78;5017229;28;20029;-68
2021/12/06 07:23:03;;;;;;;54.42;25.20;;;;;;;3.21;90.72;101281.09;5017380;28;20044;-68
2021/12/06 07:25:29;;;;;;;40.20;24.80;;;;;;;3.26;90.67;101278.78;5034516;28;20032;-67
2021/12/06 07:27:56;;;;;;;32.08;23.77;;;;;;;3.30;90.94;101285.44;5039378;28;20064;-68
2021/12/06 07:30:21;;;;;;;38.83;25.63;;;;;;;3.30;90.76;101293.47;5034685;28;20061;-68
2021/12/06 07:32:47;;;;;;;85.47;25.20;;;;;;;3.25;90.21;101290.47;5034646;28;20436;-68
2021/12/06 07:35:14;;;;;;;53.08;25.17;;;;;;;3.25;90.39;101298.50;5034367;28;20094;-68
2021/12/06 07:37:39;;;;;;;32.90;25.08;;;;;;;3.30;90.88;101304.19;5035551;28;20031;-68
2021/12/06 07:40:08;;;;;;;42.58;25.60;;;;;;;3.31;90.68;101305.84;5034491;28;20388;-68
2021/12/06 07:42:33;;;;;;;38.20;25.80;;;;;;;3.35;90.75;101292.97;5034233;28;20121;-68
2021/12/06 07:44:59;;;;;;;38.75;26.33;;;;;;;3.39;90.59;101299.69;5033931;28;20076;-68
2021/12/06 07:47:24;;;;;;;38.33;26.23;;;;;;;3.39;90.78;101286.31;5034347;28;20034;-68
2021/12/06 07:49:49;;;;;;;33.92;26.70;;;;;;;3.42;90.34;101285.97;5034513;28;20048;-68
2021/12/06 07:52:15;;;;;;;35.80;27.00;;;;;;;3.41;90.33;101286.13;5034063;28;20033;-67
2021/12/06 07:54:42;;;;;;;39.60;27.15;;;;;;;3.44;90.22;101275.09;5041819;28;20064;-67
2021/12/06 07:57:08;;;;;;;51.13;33.45;;;;;;;3.44;90.18;101275.09;5042127;28;20112;-68
2021/12/06 07:59:34;;;;;;;51.42;33.03;;;;;;;3.42;90.01;101277.13;5034284;28;20458;-68
2021/12/06 08:02:01;;;;;;;46.55;32.63;;;;;;;3.45;90.62;101271.44;5032188;28;20064;-68
2021/12/06 08:04:26;;;;;;;49.33;33.47;;;;;;;3.44;90.41;101264.41;5033936;28;20116;-68
2021/12/06 08:06:52;;;;;;;54.15;34.47;;;;;;;3.44;90.51;101267.06;5034316;28;20465;-68
2021/12/06 08:09:17;;;;;;;53.63;34.22;;;;;;;3.42;90.63;101266.41;5033865;28;20504;-68
2021/12/06 08:11:43;;;;;;;54.20;35.08;;;;;;;3.42;90.73;101261.88;5037246;28;20037;-68
2021/12/06 08:14:09;;;;;;;47.88;33.53;;;;;;;3.34;90.26;101262.72;5035339;28;20038;-68
2021/12/06 08:16:39;;;;;;;50.53;33.22;;;;;;;3.35;90.75;101260.88;5033757;28;20033;-68
2021/12/06 08:19:06;;;;;;;50.40;33.67;;;;;;;3.37;91.17;101265.06;5034051;28;20025;-68
2021/12/06 08:21:32;;;;;;;53.40;33.17;;;;;;;3.39;91.21;101256.03;5033397;28;20057;-68
2021/12/06 08:23:59;;;;;;;56.63;34.70;;;;;;;3.39;90.96;101264.06;5034004;28;20112;-68
2021/12/06 08:26:28;;;;;;;54.67;34.17;;;;;;;3.39;90.54;101267.56;5033665;28;20034;-72
2021/12/06 08:28:55;;;;;;;59.58;35.45;;;;;;;3.37;90.89;101265.06;5026930;28;20445;-73
2021/12/06 08:31:22;;;;;;;52.95;35.60;;;;;;;3.34;90.78;101265.41;5037900;28;20079;-73
2021/12/06 08:33:49;;;;;;;53.97;36.53;;;;;;;3.40;90.86;101268.41;5033603;28;20041;-73
2021/12/06 08:36:15;;;;;;;51.00;35.47;;;;;;;3.43;90.89;101273.41;5033688;28;20033;-74
2021/12/06 08:38:41;;;;;;;53.35;35.47;;;;;;;3.43;90.78;101284.13;5033568;28;20120;-74
2021/12/06 08:41:10;;;;;;;55.17;35.40;;;;;;;3.40;90.85;101296.00;5032961;28;20060;-74
2021/12/06 08:43:37;;;;;;;52.15;34.40;;;;;;;3.38;90.10;101300.66;5033489;28;20025;-71
2021/12/06 08:46:09;;;;;;;56.15;34.80;;;;;;;3.33;90.34;101305.69;5033746;28;20565;-73
2021/12/06 08:48:38;;;;;;;55.28;36.58;;;;;;;3.31;90.94;101308.53;5015476;28;20437;-71
2021/12/06 08:51:08;;;;;;;55.45;36.20;;;;;;;3.30;91.04;101311.38;5033256;28;20030;-75
2021/12/06 08:53:34;;;;;;;56.33;36.33;;;;;;;3.30;90.43;101301.50;5033210;28;20064;-72
2021/12/06 08:55:59;;;;;;;57.42;35.72;;;;;;;3.29;90.93;101301.66;5033103;28;20033;-72
2021/12/06 08:58:25;;;;;;;54.95;35.17;;;;;;;3.34;91.22;101302.84;5016179;28;20029;-74
2021/12/06 09:00:52;;;;;;;54.28;33.80;;;;;;;3.37;90.51;101307.88;5037295;28;20021;-73
2021/12/06 09:03:17;;;;;;;42.70;27.67;;;;;;;3.87;92.81;101307.84;5033943;28;20112;-73
2021/12/06 09:05:47;;;;;;;54.78;33.53;;;;;;;4.01;90.08;101312.50;5032893;28;20117;-73
2021/12/06 09:08:12;;;;;;;53.08;31.90;;;;;;;4.00;88.83;101318.88;5032700;28;20120;-75
2021/12/06 09:10:38;;;;;;;49.05;31.63;;;;;;;3.87;88.88;101313.22;5015166;28;20140;-74
2021/12/06 09:13:05;;;;;;;53.03;32.08;;;;;;;3.67;89.01;101318.91;5032920;28;20038;-72
2021/12/06 09:15:32;;;;;;;45.65;30.70;;;;;;;3.60;89.60;101317.09;5032665;28;20037;-74
2021/12/06 09:17:58;;;;;;;47.83;29.98;;;;;;;3.57;89.82;101322.78;5026729;28;20029;-74
2021/12/06 09:20:29;;;;;;;46.17;30.40;;;;;;;3.50;90.02;101319.91;5037723;28;20488;-73
2021/12/06 09:22:55;;;;;;;49.10;30.30;;;;;;;3.46;90.31;101321.28;5029601;28;20041;-73
2021/12/06 09:25:21;;;;;;;47.63;30.52;;;;;;;3.45;90.22;101314.22;5028797;28;20112;-73
2021/12/06 09:27:46;;;;;;;47.67;29.83;;;;;;;3.44;90.76;101318.75;5032045;28;20191;-71
2021/12/06 09:30:16;;;;;;;51.80;30.27;;;;;;;3.32;90.50;101325.41;5032720;28;20030;-71
2021/12/06 09:32:42;;;;;;;50.53;31.30;;;;;;;3.37;90.88;101321.25;5032297;28;20061;-71
2021/12/06 09:35:13;;;;;;;48.08;30.67;;;;;;;3.34;90.60;101328.78;5032656;28;20114;-74
2021/12/06 09:37:39;;;;;;;50.15;30.33;;;;;;;3.37;90.50;101323.09;5032123;28;20071;-69
2021/12/06 09:40:07;;;;;;;50.15;30.70;;;;;;;3.42;90.73;101314.56;5032201;28;20033;-70
2021/12/06 09:42:36;;;;;;;50.67;30.70;;;;;;;3.47;91.25;101320.25;5032491;28;20115;-69
2021/12/06 09:45:04;;;;;;;52.40;31.48;;;;;;;3.52;90.90;101313.41;5032475;28;20089;-71
2021/12/06 09:47:31;;;;;;;58.78;32.75;;;;;;;3.58;90.33;101322.59;5033275;28;20030;-77
2021/12/06 09:49:57;;;;;;;63.88;34.17;;;;;;;3.56;90.20;101321.91;5014279;28;20075;-70
2021/12/06 09:52:22;;;;;;;72.32;37.65;;;;;;;3.58;90.10;101322.59;5014182;28;20413;-70
2021/12/06 09:54:47;;;;;;;74.28;36.80;;;;;;;3.57;90.23;101325.44;5031881;28;20064;-69
2021/12/06 09:57:13;;;;;;;79.13;39.08;;;;;;;3.60;90.52;101328.63;5031096;28;20069;-69
2021/12/06 09:59:41;;;;;;;90.75;41.33;;;;;;;3.59;90.38;101337.63;5031679;28;20033;-70
2021/12/06 10:02:15;;;;;;;96.07;43.58;;;;;;;3.66;90.76;101321.75;5029845;28;20035;-74
2021/12/06 10:04:45;;;;;;;100.80;42.78;;;;;;;3.70;90.95;101323.94;5031959;28;20039;-73
2021/12/06 10:07:11;;;;;;;105.82;43.50;;;;;;;3.67;89.98;101318.09;5031787;28;20128;-70
2021/12/06 10:09:38;;;;;;;100.53;43.55;;;;;;;3.68;90.13;101315.25;5012712;28;20163;-76
2021/12/06 10:12:05;;;;;;;100.43;43.30;;;;;;;3.65;90.47;101306.69;5029759;28;20048;-70
2021/12/06 10:14:31;;;;;;;99.03;42.55;;;;;;;3.70;90.52;101307.88;5031174;28;20036;-70
2021/12/06 10:16:56;;;;;;;90.30;41.30;;;;;;;3.67;90.57;101286.81;5032044;28;20053;-70
2021/12/06 10:19:23;;;;;;;90.40;40.65;;;;;;;3.70;90.16;101291.00;5031694;28;20104;-70
2021/12/06 10:21:49;;;;;;;86.38;38.88;;;;;;;3.69;89.84;101290.13;5032074;28;20105;-71
2021/12/06 10:24:18;;;;;;;83.68;38.83;;;;;;;3.64;90.34;101283.59;5031706;28;20108;-69
2021/12/06 10:26:43;;;;;;;78.25;37.10;;;;;;;3.65;90.13;101286.13;5031411;28;20162;-69
2021/12/06 10:29:20;;;;;;;71.18;34.88;;;;;;;3.68;89.96;101277.78;5032053;28;20029;-70
2021/12/06 10:31:48;;;;;;;75.05;35.35;;;;;;;3.65;90.04;101272.72;5030966;28;20033;-70
2021/12/06 10:34:17;;;;;;;70.22;35.35;;;;;;;3.70;89.81;101278.44;5031892;28;20079;-69
2021/12/06 10:36:43;;;;;;;74.93;35.17;;;;;;;3.73;89.77;101282.63;5031524;28;20060;-71
2021/12/06 10:39:09;;;;;;;63.33;32.35;;;;;;;3.69;89.57;101290.13;5014259;28;20443;-71
2021/12/06 10:41:36;;;;;;;53.88;30.42;;;;;;;3.66;88.99;101281.63;5031658;28;20034;-69
2021/12/06 10:44:14;;;;;;;58.10;30.80;;;;;;;3.64;88.63;101287.13;5031498;28;20041;-70
2021/12/06 10:46:46;;;;;;;55.50;31.30;;;;;;;3.57;89.32;101275.44;5014016;28;20044;-71
2021/12/06 10:49:14;;;;;;;56.67;31.52;;;;;;;3.52;89.10;101262.56;5032079;28;20035;-69
2021/12/06 10:51:40;;;;;;;56.65;30.85;;;;;;;3.50;88.86;101256.53;5013994;28;20033;-69
2021/12/06 10:54:15;;;;;;;51.60;29.63;;;;;;;3.51;88.86;101249.34;5031898;28;20423;-69
2021/12/06 10:56:44;;;;;;;51.25;30.05;;;;;;;3.53;89.15;101241.97;5032147;28;20452;-69
2021/12/06 10:59:12;;;;;;;45.83;27.15;;;;;;;3.54;88.56;101232.94;5031490;28;20037;-72
2021/12/06 11:01:37;;;;;;;42.42;25.98;;;;;;;3.51;88.74;101217.25;5029587;28;20120;-72
2021/12/06 11:04:06;;;;;;;39.13;24.13;;;;;;;3.52;88.03;101218.91;5031231;28;20107;-71
2021/12/06 11:06:41;;;;;;;43.45;26.17;;;;;;;3.47;88.36;101221.25;5016591;28;20033;-73
2021/12/06 11:09:07;;;;;;;43.53;26.85;;;;;;;3.50;88.59;101231.59;5017436;28;20139;-72
2021/12/06 11:11:38;;;;;;;46.45;27.67;;;;;;;3.52;88.60;101224.28;5034535;28;20101;-72
2021/12/06 11:14:07;;;;;;;40.40;24.65;;;;;;;3.51;87.92;101220.72;5031105;28;20503;-72
2021/12/06 11:16:39;;;;;;;40.92;23.67;;;;;;;3.41;87.70;101224.59;5034230;28;20026;-72
2021/12/06 11:19:10;;;;;;;44.17;24.35;;;;;;;3.43;88.01;101212.72;5026387;28;20060;-71
2021/12/06 11:21:42;;;;;;;38.70;22.63;;;;;;;3.46;87.51;101214.25;5033747;28;20037;-72
2021/12/06 11:24:27;;;;;;;40.03;22.95;;;;;;;3.45;87.83;101202.69;5035167;28;20064;-71
2021/12/06 11:27:07;;;;;;;41.72;23.83;;;;;;;3.48;88.06;101185.47;5014225;28;20465;-73
2021/12/06 11:29:44;;;;;;;40.28;22.00;;;;;;;3.44;87.44;101184.13;5035066;28;20084;-71
2021/12/06 11:32:13;;;;;;;30.55;19.13;;;;;;;3.44;87.19;101184.13;5028654;28;20026;-71
2021/12/06 11:34:52;;;;;;;33.22;19.88;;;;;;;3.45;87.14;101185.81;5034314;28;20481;-71